sensor_id;sensor_type;location;lat;lon;timestamp;temperature;humidity
27224;DHT22;14965;50.660;13.226;2023-04-05T07:20:06;2.30;99.90
27224;DHT22;14965;50.660;13.226;2023-04-05T07:23:08;2.30;99.90
27224;DHT22;14965;50.660;13.226;2023-04-05T07:27:18;2.30;99.90
27224;DHT22;14965;50.660;13.226;2023-04-05T07:29:44;2.30;99.90
27224;DHT22;14965;50.660;13.226;2023-04-05T07:48:33;2.40;99.90
27224;DHT22;14965;50.660;13.226;2023-04-05T07:51:12;2.40;99.90
27224;DHT22;14965;50.660;13.226;2023-04-05T07:54:01;2.40;99.90
27224;DHT22;14965;50.660;13.226;2023-04-05T07:56:39;2.60;99.90
27224;DHT22;14965;50.660;13.226;2023-04-05T07:59:40;2.60;99.90
27224;DHT22;14965;50.660;13.226;2023-04-05T08:02:44;2.70;99.90
27224;DHT22;14965;50.660;13.226;2023-04-05T08:09:49;2.60;99.90
27224;DHT22;14965;50.660;13.226;2023-04-05T08:12:29;2.60;99.90
27224;DHT22;14965;50.660;13.226;2023-04-05T08:14:55;2.50;98.40
27224;DHT22;14965;50.660;13.226;2023-04-05T08:17:21;2.50;98.40
27224;DHT22;14965;50.660;13.226;2023-04-05T08:19:53;2.70;99.90
27224;DHT22;14965;50.660;13.226;2023-04-05T08:22:44;2.80;99.90
27224;DHT22;14965;50.660;13.226;2023-04-05T08:25:11;3.00;99.90
27224;DHT22;14965;50.660;13.226;2023-04-05T08:27:37;3.20;99.90
27224;DHT22;14965;50.660;13.226;2023-04-05T08:30:03;3.50;97.90
27224;DHT22;14965;50.660;13.226;2023-04-05T08:32:30;3.80;95.00
27224;DHT22;14965;50.660;13.226;2023-04-05T08:34:56;3.60;93.90
27224;DHT22;14965;50.660;13.226;2023-04-05T08:37:21;3.40;94.20
27224;DHT22;14965;50.660;13.226;2023-04-05T08:39:47;3.30;93.90
27224;DHT22;14965;50.660;13.226;2023-04-05T08:42:15;3.30;94.40
27224;DHT22;14965;50.660;13.226;2023-04-05T08:44:43;3.30;93.60
27224;DHT22;14965;50.660;13.226;2023-04-05T08:47:09;3.50;93.80
27224;DHT22;14965;50.660;13.226;2023-04-05T08:49:37;3.40;93.80
27224;DHT22;14965;50.660;13.226;2023-04-05T08:52:07;3.30;95.10
27224;DHT22;14965;50.660;13.226;2023-04-05T08:54:33;3.20;95.10
27224;DHT22;14965;50.660;13.226;2023-04-05T08:56:58;3.30;95.00
27224;DHT22;14965;50.660;13.226;2023-04-05T08:59:27;3.40;96.10
27224;DHT22;14965;50.660;13.226;2023-04-05T09:01:54;3.60;95.40
27224;DHT22;14965;50.660;13.226;2023-04-05T09:04:21;3.90;94.90
27224;DHT22;14965;50.660;13.226;2023-04-05T09:06:48;3.90;95.70
27224;DHT22;14965;50.660;13.226;2023-04-05T09:09:15;3.90;96.30
27224;DHT22;14965;50.660;13.226;2023-04-05T09:11:41;3.80;95.60
27224;DHT22;14965;50.660;13.226;2023-04-05T09:14:08;3.90;96.60
27224;DHT22;14965;50.660;13.226;2023-04-05T09:16:35;3.80;95.90
27224;DHT22;14965;50.660;13.226;2023-04-05T09:19:02;4.10;96.80
27224;DHT22;14965;50.660;13.226;2023-04-05T09:21:29;4.50;95.50
27224;DHT22;14965;50.660;13.226;2023-04-05T09:23:55;4.80;96.60
27224;DHT22;14965;50.660;13.226;2023-04-05T09:26:22;5.00;94.20
27224;DHT22;14965;50.660;13.226;2023-04-05T09:28:49;4.90;93.20
27224;DHT22;14965;50.660;13.226;2023-04-05T09:31:28;4.80;92.00
27224;DHT22;14965;50.660;13.226;2023-04-05T09:33:57;4.40;94.30
27224;DHT22;14965;50.660;13.226;2023-04-05T09:36:23;4.20;95.60
27224;DHT22;14965;50.660;13.226;2023-04-05T09:38:49;4.30;95.70
27224;DHT22;14965;50.660;13.226;2023-04-05T09:41:15;4.10;95.50
27224;DHT22;14965;50.660;13.226;2023-04-05T09:43:41;3.90;94.80
27224;DHT22;14965;50.660;13.226;2023-04-05T09:46:15;3.80;95.30
27224;DHT22;14965;50.660;13.226;2023-04-05T09:48:53;3.90;96.60
27224;DHT22;14965;50.660;13.226;2023-04-05T09:51:20;3.70;96.00
27224;DHT22;14965;50.660;13.226;2023-04-05T09:53:55;3.80;98.00
27224;DHT22;14965;50.660;13.226;2023-04-05T09:56:22;3.80;97.50
27224;DHT22;14965;50.660;13.226;2023-04-05T09:58:49;3.80;96.90
27224;DHT22;14965;50.660;13.226;2023-04-05T10:01:15;3.80;95.90
27224;DHT22;14965;50.660;13.226;2023-04-05T10:03:44;3.90;96.40
27224;DHT22;14965;50.660;13.226;2023-04-05T10:06:11;4.00;95.20
27224;DHT22;14965;50.660;13.226;2023-04-05T10:08:38;4.20;94.30
27224;DHT22;14965;50.660;13.226;2023-04-05T10:11:04;4.40;95.00
27224;DHT22;14965;50.660;13.226;2023-04-05T10:13:30;4.40;93.60
27224;DHT22;14965;50.660;13.226;2023-04-05T10:15:56;4.30;94.50
27224;DHT22;14965;50.660;13.226;2023-04-05T10:18:27;4.50;95.20
27224;DHT22;14965;50.660;13.226;2023-04-05T10:20:58;4.70;94.80
27224;DHT22;14965;50.660;13.226;2023-04-05T10:23:26;4.90;95.10
27224;DHT22;14965;50.660;13.226;2023-04-05T10:25:59;5.20;94.60
27224;DHT22;14965;50.660;13.226;2023-04-05T10:28:32;5.20;93.90
27224;DHT22;14965;50.660;13.226;2023-04-05T10:31:01;5.40;94.30
27224;DHT22;14965;50.660;13.226;2023-04-05T10:33:39;5.50;94.50
27224;DHT22;14965;50.660;13.226;2023-04-05T10:36:08;5.20;92.10
27224;DHT22;14965;50.660;13.226;2023-04-05T10:38:44;5.20;93.00
27224;DHT22;14965;50.660;13.226;2023-04-05T10:41:21;5.20;92.60
27224;DHT22;14965;50.660;13.226;2023-04-05T10:43:47;5.10;92.30
27224;DHT22;14965;50.660;13.226;2023-04-05T10:46:17;5.00;92.20
27224;DHT22;14965;50.660;13.226;2023-04-05T10:48:47;4.50;92.50
27224;DHT22;14965;50.660;13.226;2023-04-05T10:51:16;4.50;93.80
27224;DHT22;14965;50.660;13.226;2023-04-05T10:53:43;4.40;94.10
27224;DHT22;14965;50.660;13.226;2023-04-05T10:56:10;4.30;94.10
27224;DHT22;14965;50.660;13.226;2023-04-05T10:58:37;4.30;94.30
27224;DHT22;14965;50.660;13.226;2023-04-05T11:01:05;4.40;94.40
27224;DHT22;14965;50.660;13.226;2023-04-05T11:03:41;4.50;95.60
27224;DHT22;14965;50.660;13.226;2023-04-05T11:06:20;4.60;93.70
27224;DHT22;14965;50.660;13.226;2023-04-05T11:08:47;4.70;96.00
27224;DHT22;14965;50.660;13.226;2023-04-05T11:11:15;4.70;93.50
27224;DHT22;14965;50.660;13.226;2023-04-05T11:13:49;4.80;92.90
27224;DHT22;14965;50.660;13.226;2023-04-05T11:16:16;4.80;93.60
27224;DHT22;14965;50.660;13.226;2023-04-05T11:18:43;4.50;94.40
27224;DHT22;14965;50.660;13.226;2023-04-05T11:21:10;4.40;95.70
27224;DHT22;14965;50.660;13.226;2023-04-05T11:23:57;4.40;95.00
27224;DHT22;14965;50.660;13.226;2023-04-05T11:26:28;4.50;93.60
27224;DHT22;14965;50.660;13.226;2023-04-05T11:28:57;4.40;94.30
27224;DHT22;14965;50.660;13.226;2023-04-05T11:31:23;4.40;94.70
27224;DHT22;14965;50.660;13.226;2023-04-05T11:33:58;4.30;94.00
27224;DHT22;14965;50.660;13.226;2023-04-05T11:36:28;4.50;94.90
27224;DHT22;14965;50.660;13.226;2023-04-05T11:41:52;5.10;93.30
27224;DHT22;14965;50.660;13.226;2023-04-05T11:44:21;5.30;93.30
27224;DHT22;14965;50.660;13.226;2023-04-05T11:46:47;5.50;94.10
27224;DHT22;14965;50.660;13.226;2023-04-05T11:49:13;5.60;93.00
27224;DHT22;14965;50.660;13.226;2023-04-05T11:51:39;5.70;92.90
27224;DHT22;14965;50.660;13.226;2023-04-05T11:54:05;5.90;90.40
27224;DHT22;14965;50.660;13.226;2023-04-05T11:56:31;5.60;89.00
27224;DHT22;14965;50.660;13.226;2023-04-05T11:58:57;5.40;88.20
27224;DHT22;14965;50.660;13.226;2023-04-05T12:01:24;5.30;88.20
27224;DHT22;14965;50.660;13.226;2023-04-05T12:03:51;5.10;90.80
27224;DHT22;14965;50.660;13.226;2023-04-05T12:06:20;5.00;88.60
27224;DHT22;14965;50.660;13.226;2023-04-05T12:08:46;5.00;88.90
27224;DHT22;14965;50.660;13.226;2023-04-05T12:11:12;4.90;90.70
27224;DHT22;14965;50.660;13.226;2023-04-05T12:13:38;5.10;91.70
27224;DHT22;14965;50.660;13.226;2023-04-05T12:16:04;5.20;91.80
27224;DHT22;14965;50.660;13.226;2023-04-05T12:18:33;5.40;91.00
27224;DHT22;14965;50.660;13.226;2023-04-05T12:21:00;5.30;90.50
27224;DHT22;14965;50.660;13.226;2023-04-05T12:23:27;4.90;91.50
27224;DHT22;14965;50.660;13.226;2023-04-05T12:25:53;4.80;93.10
27224;DHT22;14965;50.660;13.226;2023-04-05T12:28:20;4.70;93.60
27224;DHT22;14965;50.660;13.226;2023-04-05T12:30:49;4.60;93.80
27224;DHT22;14965;50.660;13.226;2023-04-05T12:33:15;4.60;92.80
27224;DHT22;14965;50.660;13.226;2023-04-05T12:35:52;4.40;94.10
27224;DHT22;14965;50.660;13.226;2023-04-05T12:38:17;4.40;93.90
27224;DHT22;14965;50.660;13.226;2023-04-05T12:40:43;4.40;93.60
27224;DHT22;14965;50.660;13.226;2023-04-05T12:43:09;4.40;94.20
27224;DHT22;14965;50.660;13.226;2023-04-05T12:45:35;4.50;93.60
27224;DHT22;14965;50.660;13.226;2023-04-05T12:48:01;4.50;95.00
27224;DHT22;14965;50.660;13.226;2023-04-05T12:50:27;4.70;95.80
27224;DHT22;14965;50.660;13.226;2023-04-05T12:52:56;4.70;95.90
27224;DHT22;14965;50.660;13.226;2023-04-05T12:55:23;4.60;96.40
27224;DHT22;14965;50.660;13.226;2023-04-05T12:57:50;4.50;96.80
27224;DHT22;14965;50.660;13.226;2023-04-05T13:00:17;4.30;97.60
27224;DHT22;14965;50.660;13.226;2023-04-05T13:02:47;4.50;97.80
27224;DHT22;14965;50.660;13.226;2023-04-05T13:05:13;4.60;97.20
27224;DHT22;14965;50.660;13.226;2023-04-05T13:07:39;4.60;97.40
27224;DHT22;14965;50.660;13.226;2023-04-05T13:10:07;4.60;97.20
27224;DHT22;14965;50.660;13.226;2023-04-05T13:12:34;4.70;96.90
27224;DHT22;14965;50.660;13.226;2023-04-05T13:15:00;4.70;97.20
27224;DHT22;14965;50.660;13.226;2023-04-05T13:17:25;4.80;97.40
27224;DHT22;14965;50.660;13.226;2023-04-05T13:19:51;4.70;96.70
27224;DHT22;14965;50.660;13.226;2023-04-05T13:22:17;4.60;96.80
27224;DHT22;14965;50.660;13.226;2023-04-05T13:24:42;4.50;96.40
27224;DHT22;14965;50.660;13.226;2023-04-05T13:27:10;4.50;96.70
27224;DHT22;14965;50.660;13.226;2023-04-05T13:29:35;4.50;96.70
27224;DHT22;14965;50.660;13.226;2023-04-05T13:32:01;4.50;98.20
27224;DHT22;14965;50.660;13.226;2023-04-05T13:34:27;4.50;97.50
27224;DHT22;14965;50.660;13.226;2023-04-05T13:36:53;4.60;98.00
27224;DHT22;14965;50.660;13.226;2023-04-05T13:39:18;4.70;97.50
27224;DHT22;14965;50.660;13.226;2023-04-05T13:41:44;4.90;97.80
27224;DHT22;14965;50.660;13.226;2023-04-05T13:44:12;5.00;96.60
27224;DHT22;14965;50.660;13.226;2023-04-05T13:46:38;5.20;95.70
27224;DHT22;14965;50.660;13.226;2023-04-05T13:51:59;5.00;96.20
27224;DHT22;14965;50.660;13.226;2023-04-05T13:54:37;5.20;96.50
27224;DHT22;14965;50.660;13.226;2023-04-05T13:57:17;5.40;96.60
27224;DHT22;14965;50.660;13.226;2023-04-05T14:00:01;5.40;95.60
27224;DHT22;14965;50.660;13.226;2023-04-05T14:02:27;5.60;96.40
27224;DHT22;14965;50.660;13.226;2023-04-05T14:04:53;5.40;96.80
27224;DHT22;14965;50.660;13.226;2023-04-05T14:07:19;5.30;97.20
27224;DHT22;14965;50.660;13.226;2023-04-05T14:09:45;5.30;98.60
27224;DHT22;14965;50.660;13.226;2023-04-05T14:12:11;5.20;96.80
27224;DHT22;14965;50.660;13.226;2023-04-05T14:14:37;5.10;98.10
27224;DHT22;14965;50.660;13.226;2023-04-05T14:17:04;5.10;97.50
27224;DHT22;14965;50.660;13.226;2023-04-05T14:19:30;5.10;97.80
27224;DHT22;14965;50.660;13.226;2023-04-05T14:21:56;5.20;97.20
27224;DHT22;14965;50.660;13.226;2023-04-05T14:24:22;5.20;97.10
27224;DHT22;14965;50.660;13.226;2023-04-05T14:26:48;5.10;96.70
27224;DHT22;14965;50.660;13.226;2023-04-05T14:29:14;5.00;97.00
27224;DHT22;14965;50.660;13.226;2023-04-05T14:31:39;5.00;97.30
27224;DHT22;14965;50.660;13.226;2023-04-05T14:34:07;5.00;97.80
27224;DHT22;14965;50.660;13.226;2023-04-05T14:36:32;5.10;97.90
27224;DHT22;14965;50.660;13.226;2023-04-05T14:38:58;5.20;97.60
27224;DHT22;14965;50.660;13.226;2023-04-05T14:41:24;5.40;97.70
27224;DHT22;14965;50.660;13.226;2023-04-05T14:43:50;5.50;97.90
27224;DHT22;14965;50.660;13.226;2023-04-05T14:46:16;5.60;97.10
27224;DHT22;14965;50.660;13.226;2023-04-05T14:48:41;5.60;96.80
27224;DHT22;14965;50.660;13.226;2023-04-05T14:51:09;5.70;96.80
27224;DHT22;14965;50.660;13.226;2023-04-05T14:53:34;5.70;96.60
27224;DHT22;14965;50.660;13.226;2023-04-05T14:56:01;5.80;98.10
27224;DHT22;14965;50.660;13.226;2023-04-05T14:58:27;5.90;96.20
27224;DHT22;14965;50.660;13.226;2023-04-05T15:00:52;5.90;96.90
27224;DHT22;14965;50.660;13.226;2023-04-05T15:03:19;5.90;96.40
27224;DHT22;14965;50.660;13.226;2023-04-05T15:05:45;5.90;95.10
27224;DHT22;14965;50.660;13.226;2023-04-05T15:08:12;5.90;95.60
27224;DHT22;14965;50.660;13.226;2023-04-05T15:10:38;5.60;95.30
27224;DHT22;14965;50.660;13.226;2023-04-05T15:13:04;5.50;95.90
27224;DHT22;14965;50.660;13.226;2023-04-05T15:15:30;5.50;95.20
27224;DHT22;14965;50.660;13.226;2023-04-05T15:17:56;5.30;95.70
27224;DHT22;14965;50.660;13.226;2023-04-05T15:20:22;5.20;96.50
27224;DHT22;14965;50.660;13.226;2023-04-05T15:22:48;4.90;96.60
27224;DHT22;14965;50.660;13.226;2023-04-05T15:25:15;4.70;97.50
27224;DHT22;14965;50.660;13.226;2023-04-05T15:27:41;4.40;98.30
27224;DHT22;14965;50.660;13.226;2023-04-05T15:30:07;4.20;99.80
27224;DHT22;14965;50.660;13.226;2023-04-05T15:32:33;4.20;99.80
27224;DHT22;14965;50.660;13.226;2023-04-05T15:34:59;4.20;99.70
27224;DHT22;14965;50.660;13.226;2023-04-05T15:37:25;4.10;99.40
27224;DHT22;14965;50.660;13.226;2023-04-05T15:39:54;4.10;99.90
27224;DHT22;14965;50.660;13.226;2023-04-05T15:42:21;4.00;99.60
27224;DHT22;14965;50.660;13.226;2023-04-05T15:44:47;3.90;99.60
27224;DHT22;14965;50.660;13.226;2023-04-05T15:47:13;3.80;99.80
27224;DHT22;14965;50.660;13.226;2023-04-05T15:49:39;3.80;99.90
27224;DHT22;14965;50.660;13.226;2023-04-05T15:52:04;3.70;99.90
27224;DHT22;14965;50.660;13.226;2023-04-05T15:54:30;3.70;99.90
27224;DHT22;14965;50.660;13.226;2023-04-05T15:56:56;3.70;99.90
27224;DHT22;14965;50.660;13.226;2023-04-05T15:59:23;3.80;99.90
27224;DHT22;14965;50.660;13.226;2023-04-05T16:01:49;3.70;99.90
27224;DHT22;14965;50.660;13.226;2023-04-05T16:04:15;3.70;99.90
27224;DHT22;14965;50.660;13.226;2023-04-05T16:06:41;3.80;99.90
27224;DHT22;14965;50.660;13.226;2023-04-05T16:09:07;3.80;99.90
27224;DHT22;14965;50.660;13.226;2023-04-05T16:11:32;3.70;99.90
27224;DHT22;14965;50.660;13.226;2023-04-05T16:13:58;3.70;99.90
27224;DHT22;14965;50.660;13.226;2023-04-05T16:16:26;3.60;99.90
27224;DHT22;14965;50.660;13.226;2023-04-05T16:18:51;3.50;99.90
27224;DHT22;14965;50.660;13.226;2023-04-05T16:21:17;3.40;99.90
27224;DHT22;14965;50.660;13.226;2023-04-05T16:23:43;3.30;99.90
27224;DHT22;14965;50.660;13.226;2023-04-05T16:26:09;3.30;99.90
27224;DHT22;14965;50.660;13.226;2023-04-05T16:28:35;3.40;99.90
27224;DHT22;14965;50.660;13.226;2023-04-05T16:31:01;3.50;99.90
27224;DHT22;14965;50.660;13.226;2023-04-05T16:33:28;3.50;99.90
27224;DHT22;14965;50.660;13.226;2023-04-05T16:35:54;3.50;99.90
27224;DHT22;14965;50.660;13.226;2023-04-05T16:38:20;3.50;99.90
27224;DHT22;14965;50.660;13.226;2023-04-05T16:40:45;3.50;99.90
27224;DHT22;14965;50.660;13.226;2023-04-05T16:43:11;3.60;99.90
27224;DHT22;14965;50.660;13.226;2023-04-05T16:45:37;3.50;99.90
27224;DHT22;14965;50.660;13.226;2023-04-05T16:48:03;3.50;99.90
27224;DHT22;14965;50.660;13.226;2023-04-05T16:50:30;3.50;99.90
27224;DHT22;14965;50.660;13.226;2023-04-05T16:52:57;3.40;99.90
27224;DHT22;14965;50.660;13.226;2023-04-05T16:55:23;3.40;99.90
27224;DHT22;14965;50.660;13.226;2023-04-05T16:57:50;3.30;99.90
27224;DHT22;14965;50.660;13.226;2023-04-05T17:00:16;3.30;99.90
27224;DHT22;14965;50.660;13.226;2023-04-05T17:02:43;3.30;99.90
27224;DHT22;14965;50.660;13.226;2023-04-05T17:05:08;3.20;99.90
27224;DHT22;14965;50.660;13.226;2023-04-05T17:07:36;3.20;99.90
27224;DHT22;14965;50.660;13.226;2023-04-05T17:10:02;3.10;99.90
27224;DHT22;14965;50.660;13.226;2023-04-05T17:12:28;3.20;99.90
27224;DHT22;14965;50.660;13.226;2023-04-05T17:14:54;3.10;99.90
27224;DHT22;14965;50.660;13.226;2023-04-05T17:17:20;3.00;99.90
27224;DHT22;14965;50.660;13.226;2023-04-05T17:19:46;3.00;99.90
27224;DHT22;14965;50.660;13.226;2023-04-05T17:22:12;2.90;99.90
27224;DHT22;14965;50.660;13.226;2023-04-05T17:24:39;3.00;99.90
27224;DHT22;14965;50.660;13.226;2023-04-05T17:27:07;2.80;99.90
27224;DHT22;14965;50.660;13.226;2023-04-05T17:29:36;2.70;99.90
27224;DHT22;14965;50.660;13.226;2023-04-05T17:32:02;2.60;99.90
27224;DHT22;14965;50.660;13.226;2023-04-05T17:34:28;2.60;99.90
27224;DHT22;14965;50.660;13.226;2023-04-05T17:36:58;2.50;99.90
27224;DHT22;14965;50.660;13.226;2023-04-05T17:39:28;2.50;99.90
27224;DHT22;14965;50.660;13.226;2023-04-05T17:41:57;2.40;99.90
27224;DHT22;14965;50.660;13.226;2023-04-05T17:44:29;2.30;99.90
27224;DHT22;14965;50.660;13.226;2023-04-05T17:47:01;2.30;99.90
27224;DHT22;14965;50.660;13.226;2023-04-05T17:49:37;2.20;99.90
27224;DHT22;14965;50.660;13.226;2023-04-05T17:52:24;2.20;99.90
27224;DHT22;14965;50.660;13.226;2023-04-05T17:55:16;2.10;99.90
27224;DHT22;14965;50.660;13.226;2023-04-05T17:57:46;2.10;99.90
27224;DHT22;14965;50.660;13.226;2023-04-05T18:00:14;2.10;99.90
27224;DHT22;14965;50.660;13.226;2023-04-05T18:02:43;2.20;99.90
27224;DHT22;14965;50.660;13.226;2023-04-05T18:05:11;2.20;99.90
27224;DHT22;14965;50.660;13.226;2023-04-05T18:07:39;2.10;99.90
27224;DHT22;14965;50.660;13.226;2023-04-05T18:10:13;2.00;99.90
27224;DHT22;14965;50.660;13.226;2023-04-05T18:12:43;2.00;99.90
27224;DHT22;14965;50.660;13.226;2023-04-05T18:15:13;1.90;99.90
27224;DHT22;14965;50.660;13.226;2023-04-05T18:17:48;1.90;99.90
27224;DHT22;14965;50.660;13.226;2023-04-05T18:20:16;1.90;99.90
27224;DHT22;14965;50.660;13.226;2023-04-05T18:22:45;1.90;99.90
27224;DHT22;14965;50.660;13.226;2023-04-05T18:25:13;1.80;99.90
27224;DHT22;14965;50.660;13.226;2023-04-05T18:27:42;1.80;99.90
27224;DHT22;14965;50.660;13.226;2023-04-05T18:30:09;1.70;99.90
27224;DHT22;14965;50.660;13.226;2023-04-05T18:32:37;1.70;99.90
27224;DHT22;14965;50.660;13.226;2023-04-05T18:35:03;1.70;99.90
27224;DHT22;14965;50.660;13.226;2023-04-05T18:37:29;1.70;99.90
27224;DHT22;14965;50.660;13.226;2023-04-05T18:39:55;1.70;99.90
27224;DHT22;14965;50.660;13.226;2023-04-05T18:42:22;1.70;99.90
27224;DHT22;14965;50.660;13.226;2023-04-05T18:44:47;1.70;99.90
27224;DHT22;14965;50.660;13.226;2023-04-05T18:47:13;1.70;99.90
27224;DHT22;14965;50.660;13.226;2023-04-05T18:49:43;1.80;99.90
27224;DHT22;14965;50.660;13.226;2023-04-05T18:52:09;1.70;99.90
27224;DHT22;14965;50.660;13.226;2023-04-05T18:54:37;1.70;99.90
27224;DHT22;14965;50.660;13.226;2023-04-05T18:57:03;1.70;99.90
27224;DHT22;14965;50.660;13.226;2023-04-05T18:59:30;1.70;99.90
27224;DHT22;14965;50.660;13.226;2023-04-05T19:01:56;1.70;99.90
27224;DHT22;14965;50.660;13.226;2023-04-05T19:04:23;1.60;99.90
27224;DHT22;14965;50.660;13.226;2023-04-05T19:06:50;1.60;99.90
27224;DHT22;14965;50.660;13.226;2023-04-05T19:09:16;1.60;99.90
27224;DHT22;14965;50.660;13.226;2023-04-05T19:11:42;1.60;99.90
27224;DHT22;14965;50.660;13.226;2023-04-05T19:14:08;1.60;99.90
27224;DHT22;14965;50.660;13.226;2023-04-05T19:16:34;1.40;99.90
27224;DHT22;14965;50.660;13.226;2023-04-05T19:19:00;1.60;99.90
27224;DHT22;14965;50.660;13.226;2023-04-05T19:21:26;1.60;99.90
27224;DHT22;14965;50.660;13.226;2023-04-05T19:23:53;1.70;99.90
27224;DHT22;14965;50.660;13.226;2023-04-05T19:26:19;1.80;99.90
27224;DHT22;14965;50.660;13.226;2023-04-05T19:28:45;1.70;99.90
27224;DHT22;14965;50.660;13.226;2023-04-05T19:31:11;1.80;99.90
27224;DHT22;14965;50.660;13.226;2023-04-05T19:33:37;1.80;99.90
27224;DHT22;14965;50.660;13.226;2023-04-05T19:36:03;1.70;99.90
27224;DHT22;14965;50.660;13.226;2023-04-05T19:38:29;1.70;99.90
27224;DHT22;14965;50.660;13.226;2023-04-05T19:40:56;1.70;99.90
27224;DHT22;14965;50.660;13.226;2023-04-05T19:43:22;1.50;99.90
27224;DHT22;14965;50.660;13.226;2023-04-05T19:45:49;1.50;99.90
27224;DHT22;14965;50.660;13.226;2023-04-05T19:48:32;1.50;99.90
27224;DHT22;14965;50.660;13.226;2023-04-05T19:51:00;1.60;99.90
27224;DHT22;14965;50.660;13.226;2023-04-05T19:53:34;1.50;99.90
27224;DHT22;14965;50.660;13.226;2023-04-05T19:56:07;1.50;99.90
27224;DHT22;14965;50.660;13.226;2023-04-05T19:58:35;1.50;99.90
27224;DHT22;14965;50.660;13.226;2023-04-05T20:01:00;1.50;99.90
27224;DHT22;14965;50.660;13.226;2023-04-05T20:03:27;1.50;99.90
27224;DHT22;14965;50.660;13.226;2023-04-05T20:06:04;1.40;99.90
27224;DHT22;14965;50.660;13.226;2023-04-05T20:08:35;1.30;99.90
27224;DHT22;14965;50.660;13.226;2023-04-05T20:11:11;1.30;99.90
27224;DHT22;14965;50.660;13.226;2023-04-05T20:13:42;1.40;99.90
27224;DHT22;14965;50.660;13.226;2023-04-05T20:16:14;1.40;99.90
27224;DHT22;14965;50.660;13.226;2023-04-05T20:18:43;1.40;99.90
27224;DHT22;14965;50.660;13.226;2023-04-05T20:21:09;1.40;99.90
27224;DHT22;14965;50.660;13.226;2023-04-05T20:23:35;1.50;99.90
27224;DHT22;14965;50.660;13.226;2023-04-05T20:26:05;1.50;99.90
27224;DHT22;14965;50.660;13.226;2023-04-05T20:28:34;1.60;99.90
27224;DHT22;14965;50.660;13.226;2023-04-05T20:31:04;1.60;99.90
27224;DHT22;14965;50.660;13.226;2023-04-05T20:36:19;1.40;99.90
27224;DHT22;14965;50.660;13.226;2023-04-05T20:38:57;1.40;99.90
27224;DHT22;14965;50.660;13.226;2023-04-05T20:41:28;1.30;99.90
27224;DHT22;14965;50.660;13.226;2023-04-05T20:44:13;1.20;99.90
27224;DHT22;14965;50.660;13.226;2023-04-05T20:46:39;1.10;99.90
27224;DHT22;14965;50.660;13.226;2023-04-05T20:49:05;1.10;99.90
27224;DHT22;14965;50.660;13.226;2023-04-05T20:51:31;1.10;99.90
27224;DHT22;14965;50.660;13.226;2023-04-05T20:53:57;1.20;99.90
27224;DHT22;14965;50.660;13.226;2023-04-05T20:56:25;1.10;99.90
27224;DHT22;14965;50.660;13.226;2023-04-05T20:58:56;1.10;99.90
27224;DHT22;14965;50.660;13.226;2023-04-05T21:01:24;1.20;99.90
27224;DHT22;14965;50.660;13.226;2023-04-05T21:03:52;1.10;99.90
27224;DHT22;14965;50.660;13.226;2023-04-05T21:06:18;1.20;99.90
27224;DHT22;14965;50.660;13.226;2023-04-05T21:08:46;1.20;99.90
27224;DHT22;14965;50.660;13.226;2023-04-05T21:11:12;1.20;99.90
27224;DHT22;14965;50.660;13.226;2023-04-05T21:13:38;1.30;99.90
27224;DHT22;14965;50.660;13.226;2023-04-05T21:16:07;1.20;99.90
27224;DHT22;14965;50.660;13.226;2023-04-05T21:18:38;1.20;99.90
27224;DHT22;14965;50.660;13.226;2023-04-05T21:21:07;1.20;99.90
27224;DHT22;14965;50.660;13.226;2023-04-05T21:23:33;1.10;99.90
27224;DHT22;14965;50.660;13.226;2023-04-05T21:26:05;1.20;99.90
27224;DHT22;14965;50.660;13.226;2023-04-05T21:28:33;1.20;99.90
27224;DHT22;14965;50.660;13.226;2023-04-05T21:31:02;1.30;99.90
27224;DHT22;14965;50.660;13.226;2023-04-05T21:33:28;1.30;99.90
27224;DHT22;14965;50.660;13.226;2023-04-05T21:35:55;1.30;99.90
27224;DHT22;14965;50.660;13.226;2023-04-05T21:38:23;1.40;99.90
27224;DHT22;14965;50.660;13.226;2023-04-05T21:40:49;1.40;99.90
27224;DHT22;14965;50.660;13.226;2023-04-05T21:43:15;1.40;99.90
27224;DHT22;14965;50.660;13.226;2023-04-05T21:45:41;1.50;99.90
27224;DHT22;14965;50.660;13.226;2023-04-05T21:48:12;1.50;99.90
27224;DHT22;14965;50.660;13.226;2023-04-05T21:50:44;1.50;99.90
27224;DHT22;14965;50.660;13.226;2023-04-05T21:53:11;1.40;99.90
27224;DHT22;14965;50.660;13.226;2023-04-05T21:55:37;1.40;99.90
27224;DHT22;14965;50.660;13.226;2023-04-05T21:58:07;1.40;99.90
27224;DHT22;14965;50.660;13.226;2023-04-05T22:00:47;1.30;99.90
27224;DHT22;14965;50.660;13.226;2023-04-05T22:03:22;1.30;99.90
27224;DHT22;14965;50.660;13.226;2023-04-05T22:05:53;1.20;99.90
27224;DHT22;14965;50.660;13.226;2023-04-05T22:08:28;1.10;99.90
27224;DHT22;14965;50.660;13.226;2023-04-05T22:10:57;1.00;99.90
27224;DHT22;14965;50.660;13.226;2023-04-05T22:13:27;0.90;99.90
27224;DHT22;14965;50.660;13.226;2023-04-05T22:16:00;0.90;99.90
27224;DHT22;14965;50.660;13.226;2023-04-05T22:18:26;1.00;99.90
27224;DHT22;14965;50.660;13.226;2023-04-05T22:20:54;0.80;99.90
27224;DHT22;14965;50.660;13.226;2023-04-05T22:23:20;0.80;99.90
27224;DHT22;14965;50.660;13.226;2023-04-05T22:25:48;0.70;99.90
27224;DHT22;14965;50.660;13.226;2023-04-05T22:28:13;0.70;99.90
27224;DHT22;14965;50.660;13.226;2023-04-05T22:30:39;0.60;99.90
27224;DHT22;14965;50.660;13.226;2023-04-05T22:33:05;0.60;99.90
27224;DHT22;14965;50.660;13.226;2023-04-05T22:35:31;0.50;99.90
27224;DHT22;14965;50.660;13.226;2023-04-05T22:37:57;0.50;99.90
27224;DHT22;14965;50.660;13.226;2023-04-05T22:40:23;0.50;99.90
27224;DHT22;14965;50.660;13.226;2023-04-05T22:42:50;0.50;99.90
27224;DHT22;14965;50.660;13.226;2023-04-05T22:45:16;0.40;99.90
27224;DHT22;14965;50.660;13.226;2023-04-05T22:47:42;0.50;99.90
27224;DHT22;14965;50.660;13.226;2023-04-05T22:50:11;0.40;99.90
27224;DHT22;14965;50.660;13.226;2023-04-05T22:52:37;0.40;99.90
27224;DHT22;14965;50.660;13.226;2023-04-05T22:55:05;0.40;99.90
27224;DHT22;14965;50.660;13.226;2023-04-05T22:57:32;0.40;99.90
27224;DHT22;14965;50.660;13.226;2023-04-05T23:00:00;0.40;99.90
27224;DHT22;14965;50.660;13.226;2023-04-05T23:02:26;0.50;99.90
27224;DHT22;14965;50.660;13.226;2023-04-05T23:04:52;0.40;99.90
27224;DHT22;14965;50.660;13.226;2023-04-05T23:07:18;0.50;99.90
27224;DHT22;14965;50.660;13.226;2023-04-05T23:09:43;0.50;99.90
27224;DHT22;14965;50.660;13.226;2023-04-05T23:12:09;0.60;99.90
27224;DHT22;14965;50.660;13.226;2023-04-05T23:14:35;0.60;99.90
27224;DHT22;14965;50.660;13.226;2023-04-05T23:17:03;0.70;99.90
27224;DHT22;14965;50.660;13.226;2023-04-05T23:19:32;0.70;99.90
27224;DHT22;14965;50.660;13.226;2023-04-05T23:21:58;0.70;99.90
27224;DHT22;14965;50.660;13.226;2023-04-05T23:24:24;0.80;99.90
27224;DHT22;14965;50.660;13.226;2023-04-05T23:26:50;0.80;99.90